Time;durP1;ratioP1;P1;durP2;ratioP2;P2;SDS_P1;SDS_P2;PMS_P1;PMS_P2;Temp;Humidity;BMP_temperature;BMP_pressure;BME280_temperature;BME280_humidity;BME280_pressure;Samples;Min_cycle;Max_cycle;Signal;HPM_P1;HPM_P2
2022/11/01 00:00:20;;;;;;;23.67;21.33;;;9.80;99.90;;;;;;5093398;28;20205;-79
2022/11/01 00:02:46;;;;;;;23.77;21.33;;;9.80;99.90;;;;;;5092967;28;20250;-79
2022/11/01 00:05:12;;;;;;;22.87;20.60;;;9.80;99.90;;;;;;5095705;28;20189;-79
2022/11/01 00:07:37;;;;;;;27.10;23.10;;;9.70;99.90;;;;;;5112703;28;20652;-78
2022/11/01 00:10:04;;;;;;;21.10;18.87;;;9.80;99.90;;;;;;5116045;28;20189;-79
2022/11/01 00:12:30;;;;;;;24.30;21.80;;;9.70;99.90;;;;;;5114719;28;20199;-79
2022/11/01 00:14:56;;;;;;;24.73;22.10;;;9.70;99.90;;;;;;5113288;28;20727;-77
2022/11/01 00:17:22;;;;;;;25.30;19.97;;;9.80;99.90;;;;;;5096778;28;20262;-77
2022/11/01 00:19:48;;;;;;;23.47;21.23;;;9.70;99.90;;;;;;5098537;28;20193;-77
2022/11/01 00:22:14;;;;;;;24.10;21.67;;;9.70;99.90;;;;;;5080548;28;20555;-77
2022/11/01 00:24:39;;;;;;;29.33;26.50;;;9.70;99.90;;;;;;5090707;28;20689;-78
2022/11/01 00:27:05;;;;;;;57.83;53.70;;;9.70;99.90;;;;;;5091052;28;20657;-77
2022/11/01 00:29:31;;;;;;;47.27;43.87;;;9.70;99.90;;;;;;5096554;28;20202;-77
2022/11/01 00:31:56;;;;;;;20.40;18.53;;;9.70;99.90;;;;;;5095971;28;20184;-78
2022/11/01 00:34:22;;;;;;;18.90;17.30;;;9.70;99.90;;;;;;5092780;28;20189;-77
2022/11/01 00:36:48;;;;;;;22.20;20.37;;;9.70;99.90;;;;;;5091384;28;20208;-77
2022/11/01 00:39:14;;;;;;;24.87;22.87;;;9.70;99.90;;;;;;5090965;28;20173;-77
2022/11/01 00:41:41;;;;;;;19.87;18.00;;;9.60;99.90;;;;;;5091051;28;20189;-77
2022/11/01 00:44:06;;;;;;;18.53;16.77;;;9.60;99.90;;;;;;5090547;28;20189;-77
2022/11/01 00:46:32;;;;;;;19.63;17.83;;;9.60;99.90;;;;;;5090856;28;20177;-77
2022/11/01 00:48:58;;;;;;;33.00;30.50;;;9.60;99.90;;;;;;5091971;28;20173;-77
2022/11/01 00:51:24;;;;;;;25.70;23.00;;;9.60;99.90;;;;;;5091165;28;20223;-77
2022/11/01 00:53:50;;;;;;;39.67;36.03;;;9.60;99.90;;;;;;5090999;28;20184;-77
2022/11/01 00:56:17;;;;;;;41.67;38.33;;;9.70;99.90;;;;;;5091831;28;20220;-77
2022/11/01 00:58:42;;;;;;;50.23;46.50;;;9.70;99.90;;;;;;5090001;28;20177;-77
2022/11/01 01:01:08;;;;;;;52.70;48.70;;;9.70;99.90;;;;;;5094524;28;20254;-78
2022/11/01 01:03:35;;;;;;;32.33;29.53;;;9.80;99.90;;;;;;5101504;28;20256;-78
2022/11/01 01:06:01;;;;;;;28.77;26.37;;;9.70;99.90;;;;;;5091146;28;20189;-78
2022/11/01 01:08:27;;;;;;;29.17;26.17;;;9.70;99.90;;;;;;5091763;28;20216;-78
2022/11/01 01:10:53;;;;;;;62.87;58.60;;;9.70;99.90;;;;;;5093933;28;20321;-78
2022/11/01 01:13:19;;;;;;;57.43;52.63;;;9.70;99.90;;;;;;5092501;28;20721;-77
2022/11/01 01:15:45;;;;;;;48.83;44.80;;;9.70;99.90;;;;;;5092443;28;20615;-79
2022/11/01 01:18:11;;;;;;;25.63;21.03;;;9.70;99.90;;;;;;5091577;28;20238;-77
2022/11/01 01:20:37;;;;;;;27.53;23.63;;;9.70;99.90;;;;;;5098911;28;20193;-77
2022/11/01 01:23:03;;;;;;;24.47;19.47;;;9.70;99.90;;;;;;5120174;28;20174;-76
2022/11/01 01:25:29;;;;;;;26.40;21.63;;;9.60;99.90;;;;;;5108728;28;20196;-76
2022/11/01 01:27:55;;;;;;;30.57;27.43;;;9.70;99.90;;;;;;5096041;28;20204;-77
2022/11/01 01:30:21;;;;;;;30.40;27.20;;;9.70;99.90;;;;;;5097807;28;20216;-78
2022/11/01 01:32:47;;;;;;;52.97;49.10;;;9.60;99.90;;;;;;5121916;28;20250;-79
2022/11/01 01:35:12;;;;;;;46.97;43.27;;;9.60;99.90;;;;;;5124708;28;20177;-77
2022/11/01 01:37:38;;;;;;;72.93;67.93;;;9.60;99.90;;;;;;5133444;28;20177;-76
2022/11/01 01:40:05;;;;;;;27.37;24.87;;;9.60;99.90;;;;;;5132182;28;20221;-78
2022/11/01 01:42:34;;;;;;;56.13;51.83;;;9.60;99.90;;;;;;5075071;28;20186;-78
2022/11/01 01:45:04;;;;;;;36.83;34.13;;;9.50;99.90;;;;;;5075348;28;20898;-78
2022/11/01 01:47:35;;;;;;;46.13;41.97;;;9.50;99.90;;;;;;5075585;28;20174;-78
2022/11/01 01:50:06;;;;;;;48.97;44.70;;;9.50;99.90;;;;;;5079304;28;20277;-76
2022/11/01 01:52:41;;;;;;;51.43;47.60;;;9.50;99.90;;;;;;5113921;28;20176;-78
2022/11/01 01:55:09;;;;;;;54.03;49.47;;;9.50;99.90;;;;;;5105241;28;20251;-77
2022/11/01 01:57:37;;;;;;;38.50;35.33;;;9.50;99.90;;;;;;5100501;28;20215;-79
2022/11/01 02:00:04;;;;;;;56.00;52.03;;;9.40;99.90;;;;;;5101285;28;20228;-79
2022/11/01 02:02:31;;;;;;;64.07;59.63;;;9.40;99.90;;;;;;5097317;28;20189;-78
2022/11/01 02:05:02;;;;;;;53.87;50.13;;;9.40;99.90;;;;;;5094837;28;20197;-78
2022/11/01 02:07:28;;;;;;;49.20;45.60;;;9.40;99.90;;;;;;5094633;28;20188;-79
2022/11/01 02:09:55;;;;;;;49.07;45.53;;;9.40;99.90;;;;;;5095173;28;20218;-77
2022/11/01 02:12:25;;;;;;;69.83;64.83;;;9.40;99.90;;;;;;5111845;28;20582;-78
2022/11/01 02:14:51;;;;;;;24.90;22.60;;;9.40;99.90;;;;;;5116038;28;20645;-78
2022/11/01 02:17:35;;;;;;;20.50;18.50;;;9.40;99.90;;;;;;5114284;28;20268;-79
2022/11/01 02:20:33;;;;;;;25.23;22.93;;;9.30;99.90;;;;;;5115760;28;20200;-78
2022/11/01 02:23:11;;;;;;;43.80;40.50;;;9.40;99.90;;;;;;5114189;28;20172;-78
2022/11/01 02:26:03;;;;;;;40.90;37.70;;;9.40;99.90;;;;;;5114548;28;20275;-78
2022/11/01 02:28:55;;;;;;;30.07;27.63;;;9.40;99.90;;;;;;5113663;28;20191;-78
2022/11/01 02:31:39;;;;;;;21.70;19.70;;;9.40;99.90;;;;;;5107497;28;20580;-78
2022/11/01 02:34:43;;;;;;;19.50;15.73;;;9.40;99.90;;;;;;5093978;28;20275;-78
2022/11/01 02:37:17;;;;;;;22.73;19.67;;;9.30;99.90;;;;;;5092837;28;20361;-78
2022/11/01 02:39:49;;;;;;;18.57;16.43;;;9.30;99.90;;;;;;5099790;28;20318;-77
2022/11/01 02:42:23;;;;;;;19.30;15.63;;;9.30;99.90;;;;;;5109439;28;20183;-78
2022/11/01 02:44:56;;;;;;;18.17;16.23;;;9.30;99.90;;;;;;5113396;28;20172;-78
2022/11/01 02:47:24;;;;;;;20.17;14.63;;;9.40;99.90;;;;;;5114768;28;20187;-78
2022/11/01 02:49:54;;;;;;;20.23;15.00;;;9.40;99.90;;;;;;5116815;27;20219;-78
2022/11/01 02:52:24;;;;;;;17.33;14.90;;;9.50;99.90;;;;;;5114864;28;20266;-78
2022/11/01 02:54:57;;;;;;;17.73;14.97;;;9.60;99.90;;;;;;5116434;28;20188;-78
2022/11/01 02:57:33;;;;;;;21.27;14.90;;;9.60;99.90;;;;;;5113650;28;20216;-78
2022/11/01 03:00:04;;;;;;;20.27;15.13;;;9.70;99.90;;;;;;5108309;28;20204;-76
2022/11/01 03:02:42;;;;;;;19.80;16.63;;;9.70;99.90;;;;;;5129927;28;20180;-76
2022/11/01 03:05:20;;;;;;;22.20;20.00;;;9.80;99.90;;;;;;5128368;28;20180;-78
2022/11/01 03:07:56;;;;;;;28.43;26.13;;;9.90;99.90;;;;;;5112571;28;20278;-78
2022/11/01 03:10:28;;;;;;;59.00;55.07;;;9.90;99.90;;;;;;5114893;28;20200;-77
2022/11/01 03:13:09;;;;;;;23.57;20.93;;;9.90;99.90;;;;;;5095069;28;20672;-78
2022/11/01 03:15:42;;;;;;;22.70;19.80;;;9.90;99.90;;;;;;5094275;28;20560;-78
2022/11/01 03:18:28;;;;;;;23.97;17.87;;;9.90;99.90;;;;;;5093743;28;20181;-78
2022/11/01 03:21:17;;;;;;;27.90;25.43;;;10.00;99.90;;;;;;5095272;28;20199;-77
2022/11/01 03:23:50;;;;;;;39.40;36.20;;;10.00;99.90;;;;;;5119770;28;20176;-77
2022/11/01 03:26:24;;;;;;;37.77;34.63;;;10.00;99.90;;;;;;5124678;28;20259;-76
2022/11/01 03:28:55;;;;;;;33.57;30.93;;;10.00;99.90;;;;;;5104204;28;20189;-76
2022/11/01 03:31:27;;;;;;;28.80;26.33;;;10.10;99.90;;;;;;5094454;28;20237;-79
2022/11/01 03:34:00;;;;;;;19.00;17.07;;;10.10;99.90;;;;;;5073415;28;20677;-79
2022/11/01 03:36:34;;;;;;;20.07;17.70;;;10.10;99.90;;;;;;5074419;28;20197;-79
2022/11/01 03:39:10;;;;;;;51.40;47.87;;;10.10;99.90;;;;;;5073357;28;20542;-79
2022/11/01 03:41:42;;;;;;;63.67;59.60;;;10.10;99.90;;;;;;5074757;28;20550;-78
2022/11/01 03:44:11;;;;;;;45.40;42.37;;;10.10;99.90;;;;;;5072983;28;20715;-77
2022/11/01 03:46:38;;;;;;;41.50;38.57;;;10.10;99.90;;;;;;5073064;28;20190;-79
2022/11/01 03:49:03;;;;;;;41.10;37.90;;;10.10;99.90;;;;;;5072740;28;20217;-79
2022/11/01 03:51:29;;;;;;;43.27;40.17;;;10.10;99.90;;;;;;5074417;28;20221;-79
2022/11/01 03:53:55;;;;;;;46.70;43.27;;;10.10;99.90;;;;;;5079123;28;20189;-77
2022/11/01 03:56:21;;;;;;;52.47;48.97;;;10.20;99.90;;;;;;5087638;28;20209;-77
2022/11/01 03:58:47;;;;;;;55.20;51.50;;;10.20;99.90;;;;;;5084478;28;20174;-78
2022/11/01 04:01:15;;;;;;;46.67;43.47;;;10.20;99.90;;;;;;5071314;28;20200;-78
2022/11/01 04:03:41;;;;;;;62.37;58.50;;;10.20;99.90;;;;;;5090925;28;20213;-77
2022/11/01 04:06:07;;;;;;;61.13;57.07;;;10.30;99.90;;;;;;5093480;28;20559;-78
2022/11/01 04:08:33;;;;;;;64.07;60.13;;;10.30;99.90;;;;;;5093964;28;20823;-78
2022/11/01 04:10:59;;;;;;;64.87;60.87;;;10.30;99.90;;;;;;5094856;28;20696;-78
2022/11/01 04:13:25;;;;;;;59.87;55.87;;;10.40;99.90;;;;;;5088714;28;20195;-79
2022/11/01 04:21:23;;;;;;;39.67;37.10;;;10.40;99.90;;;;;;5092628;28;20201;-78
2022/11/01 04:23:49;;;;;;;25.53;23.20;;;10.50;99.90;;;;;;5091497;28;20169;-77
2022/11/01 04:26:18;;;;;;;23.73;21.87;;;10.50;99.90;;;;;;5093205;28;20185;-78
2022/11/01 04:28:55;;;;;;;23.80;21.90;;;10.50;99.90;;;;;;5092806;28;20223;-79
2022/11/01 04:31:26;;;;;;;27.03;24.33;;;10.50;99.90;;;;;;5094663;28;20278;-79
2022/11/01 04:33:52;;;;;;;25.10;23.17;;;10.50;99.90;;;;;;5098598;28;20715;-79
2022/11/01 04:36:18;;;;;;;28.90;26.20;;;10.50;99.90;;;;;;5093209;28;20212;-78
2022/11/01 04:38:46;;;;;;;26.00;23.90;;;10.60;99.90;;;;;;5099064;28;20246;-77
2022/11/01 04:41:14;;;;;;;26.40;24.20;;;10.60;99.90;;;;;;5114817;28;20184;-77
2022/11/01 04:43:40;;;;;;;31.40;24.17;;;10.60;99.90;;;;;;5124209;28;20184;-78
2022/11/01 04:46:06;;;;;;;22.17;20.20;;;10.60;99.90;;;;;;5112017;28;20185;-78
2022/11/01 04:48:31;;;;;;;20.20;17.27;;;10.60;99.90;;;;;;5112691;28;20225;-77
2022/11/01 04:50:59;;;;;;;22.83;20.77;;;10.70;99.90;;;;;;5108866;22;20214;-77
2022/11/01 04:53:25;;;;;;;24.60;22.13;;;10.70;99.90;;;;;;5070526;28;20174;-78
2022/11/01 04:55:51;;;;;;;26.70;24.50;;;10.80;99.90;;;;;;5073179;28;20214;-77
2022/11/01 04:58:17;;;;;;;29.50;26.90;;;10.80;99.90;;;;;;5081054;28;20205;-77
2022/11/01 05:00:42;;;;;;;27.83;25.47;;;10.80;99.90;;;;;;5081023;28;20182;-77
2022/11/01 05:03:09;;;;;;;29.17;26.67;;;10.80;99.90;;;;;;5079904;28;20719;-78
2022/11/01 05:05:35;;;;;;;30.03;27.87;;;10.90;99.90;;;;;;5075543;28;20185;-80
2022/11/01 05:08:09;;;;;;;35.30;32.80;;;10.90;99.90;;;;;;5077669;28;20658;-77
2022/11/01 05:10:37;;;;;;;48.80;45.33;;;10.90;99.90;;;;;;5075202;28;20202;-79
2022/11/01 05:13:04;;;;;;;67.27;62.93;;;11.00;99.90;;;;;;5057314;28;20251;-78
2022/11/01 05:15:30;;;;;;;92.57;87.30;;;11.00;99.90;;;;;;5056519;28;20224;-78
2022/11/01 05:17:58;;;;;;;83.07;77.47;;;11.00;99.90;;;;;;5055880;28;20236;-78
2022/11/01 05:20:24;;;;;;;85.40;80.27;;;11.10;99.90;;;;;;5074046;28;20227;-78
2022/11/01 05:22:49;;;;;;;89.47;83.80;;;11.10;99.90;;;;;;5092530;28;20702;-77
2022/11/01 05:25:16;;;;;;;81.23;76.03;;;11.20;99.90;;;;;;5075639;28;20181;-77
2022/11/01 05:27:42;;;;;;;51.87;48.10;;;11.20;99.90;;;;;;5072903;28;20601;-78
2022/11/01 05:30:09;;;;;;;35.70;33.00;;;11.20;99.90;;;;;;5073183;28;20201;-77
2022/11/01 05:32:36;;;;;;;30.13;27.73;;;11.20;99.90;;;;;;5055784;28;20183;-78
2022/11/01 05:35:03;;;;;;;39.40;35.47;;;11.10;99.90;;;;;;5054725;28;20185;-77
2022/11/01 05:37:29;;;;;;;29.33;26.13;;;11.10;99.90;;;;;;5052965;28;20218;-77
2022/11/01 05:39:55;;;;;;;28.83;26.23;;;11.20;99.90;;;;;;5053951;28;20276;-79
2022/11/01 05:42:21;;;;;;;52.83;49.07;;;11.20;99.90;;;;;;5077118;28;20174;-78
2022/11/01 05:44:46;;;;;;;54.67;51.20;;;11.30;99.90;;;;;;5086160;28;20186;-79
2022/11/01 05:47:12;;;;;;;34.43;32.03;;;11.40;99.90;;;;;;5075270;28;20615;-79
2022/11/01 05:49:38;;;;;;;31.93;29.33;;;11.60;99.90;;;;;;5082004;28;20204;-80
2022/11/01 05:52:04;;;;;;;35.53;33.03;;;11.90;99.90;;;;;;5074880;28;20686;-80
2022/11/01 05:54:30;;;;;;;69.07;64.93;;;12.00;99.90;;;;;;5074978;28;20186;-80
2022/11/01 05:56:55;;;;;;;12.13;11.00;;;12.30;99.90;;;;;;5073984;28;20219;-79
2022/11/01 05:59:21;;;;;;;19.13;15.63;;;12.40;99.90;;;;;;5074667;28;20185;-79
2022/11/01 06:01:47;;;;;;;37.87;35.10;;;12.50;99.90;;;;;;5063091;28;20195;-79
2022/11/01 06:04:12;;;;;;;20.23;18.67;;;12.70;99.90;;;;;;5054612;28;20205;-79
2022/11/01 06:06:38;;;;;;;45.67;42.47;;;12.80;99.90;;;;;;5051706;28;20585;-77
2022/11/01 06:09:04;;;;;;;56.53;53.23;;;12.90;99.90;;;;;;5052275;28;20205;-77
2022/11/01 06:11:30;;;;;;;43.03;40.43;;;12.90;99.90;;;;;;5059194;28;20247;-72
2022/11/01 06:13:57;;;;;;;42.30;39.63;;;13.00;99.90;;;;;;5072746;28;20213;-73
2022/11/01 06:16:25;;;;;;;43.93;41.23;;;13.00;99.90;;;;;;5072613;28;20228;-72
2022/11/01 06:18:51;;;;;;;42.07;39.40;;;13.00;99.90;;;;;;5072160;28;20212;-73
2022/11/01 06:21:17;;;;;;;46.67;43.97;;;13.00;99.90;;;;;;5066411;28;20202;-73
2022/11/01 06:23:47;;;;;;;71.40;67.50;;;13.00;99.90;;;;;;5051123;28;20182;-73
2022/11/01 06:26:13;;;;;;;17.00;15.43;;;12.90;99.90;;;;;;5052839;28;20244;-73
2022/11/01 06:28:38;;;;;;;10.10;9.37;;;12.80;99.90;;;;;;5052070;28;20205;-73
2022/11/01 06:31:04;;;;;;;8.30;7.50;;;12.90;99.90;;;;;;5063493;28;20236;-73
2022/11/01 06:33:31;;;;;;;9.87;8.97;;;13.10;99.90;;;;;;5051265;28;20178;-73
2022/11/01 06:35:56;;;;;;;9.43;8.63;;;13.10;99.90;;;;;;5052471;28;20222;-72
2022/11/01 06:38:22;;;;;;;12.57;10.03;;;13.10;99.90;;;;;;5052022;28;20174;-72
2022/11/01 06:40:48;;;;;;;15.10;11.00;;;13.10;99.90;;;;;;5048740;28;20206;-72
2022/11/01 06:43:14;;;;;;;14.17;12.10;;;13.10;99.90;;;;;;5061052;28;20182;-72
2022/11/01 06:45:40;;;;;;;9.33;8.27;;;13.10;99.90;;;;;;5056314;28;20178;-71
2022/11/01 06:48:06;;;;;;;9.03;8.10;;;13.20;99.90;;;;;;5051595;28;20205;-72
2022/11/01 06:50:32;;;;;;;11.47;10.40;;;13.20;99.90;;;;;;5050658;28;20214;-73
2022/11/01 06:52:58;;;;;;;59.77;56.17;;;13.30;99.90;;;;;;5058678;28;20646;-75
2022/11/01 06:55:25;;;;;;;82.90;78.60;;;13.30;99.90;;;;;;5071784;28;20181;-73
2022/11/01 06:58:02;;;;;;;30.43;28.07;;;13.30;99.90;;;;;;5071318;28;20211;-74
2022/11/01 07:00:29;;;;;;;21.87;20.37;;;13.30;99.90;;;;;;5053138;28;20216;-73
2022/11/01 07:03:00;;;;;;;24.93;23.33;;;13.30;99.90;;;;;;5059712;28;20262;-74
2022/11/01 07:05:27;;;;;;;15.23;13.87;;;13.30;99.90;;;;;;5073848;28;20190;-74
2022/11/01 07:07:53;;;;;;;10.53;9.57;;;13.30;99.90;;;;;;5051671;28;20640;-74
2022/11/01 07:10:19;;;;;;;8.63;7.27;;;13.30;99.90;;;;;;5051565;28;20208;-74
2022/11/01 07:12:44;;;;;;;13.20;12.20;;;13.40;99.90;;;;;;5057435;28;20634;-73
2022/11/01 07:15:11;;;;;;;26.63;25.03;;;13.50;99.90;;;;;;5070210;28;20660;-74
2022/11/01 07:17:36;;;;;;;25.53;24.00;;;13.60;99.90;;;;;;5070363;28;20266;-74
2022/11/01 07:20:02;;;;;;;23.87;22.33;;;13.60;99.90;;;;;;5070754;28;20578;-75
2022/11/01 07:22:28;;;;;;;24.30;22.60;;;13.70;99.90;;;;;;5067182;28;20181;-74
2022/11/01 07:24:54;;;;;;;12.93;12.17;;;13.70;99.90;;;;;;5050087;28;20206;-74
2022/11/01 07:27:19;;;;;;;9.43;8.63;;;13.80;99.90;;;;;;5050903;28;20797;-74
2022/11/01 07:29:45;;;;;;;14.73;13.63;;;13.70;99.90;;;;;;5051210;28;20187;-74
2022/11/01 07:32:11;;;;;;;12.67;11.83;;;13.70;99.90;;;;;;5052574;28;20237;-74
2022/11/01 07:34:37;;;;;;;18.63;17.20;;;13.70;99.90;;;;;;5069733;28;20677;-74
2022/11/01 07:37:02;;;;;;;17.77;16.77;;;13.70;99.90;;;;;;5070928;28;20292;-74
2022/11/01 07:39:28;;;;;;;14.93;13.97;;;13.70;99.90;;;;;;5070020;28;20246;-74
2022/11/01 07:41:54;;;;;;;15.87;14.87;;;13.80;99.90;;;;;;5071205;28;20201;-74
2022/11/01 07:44:20;;;;;;;15.13;13.70;;;13.80;99.90;;;;;;5050983;28;20186;-74
2022/11/01 07:46:46;;;;;;;15.50;14.30;;;13.80;99.90;;;;;;5051058;28;20175;-75
2022/11/01 07:49:11;;;;;;;19.67;17.50;;;13.90;99.90;;;;;;5049517;28;20208;-73
2022/11/01 07:51:37;;;;;;;14.70;13.27;;;13.90;99.90;;;;;;5050892;28;20320;-73
2022/11/01 07:54:03;;;;;;;12.73;11.53;;;13.90;99.90;;;;;;5065904;28;20181;-74
2022/11/01 07:56:29;;;;;;;13.43;12.07;;;13.90;99.90;;;;;;5069519;28;20239;-74
2022/11/01 07:58:54;;;;;;;15.70;14.20;;;13.80;99.90;;;;;;5070085;28;20224;-74
2022/11/01 08:01:20;;;;;;;31.43;29.13;;;13.90;99.90;;;;;;5071030;28;20202;-74
2022/11/01 08:03:48;;;;;;;51.93;48.83;;;13.90;99.90;;;;;;5057532;28;20618;-74
2022/11/01 08:06:14;;;;;;;49.93;46.60;;;13.80;99.90;;;;;;5050235;28;20182;-75
2022/11/01 08:08:39;;;;;;;47.00;43.80;;;13.80;99.90;;;;;;5050840;28;20633;-75
2022/11/01 08:11:05;;;;;;;27.30;25.13;;;13.80;99.90;;;;;;5050843;28;20294;-74
2022/11/01 08:13:31;;;;;;;21.63;19.70;;;13.80;99.90;;;;;;5062894;28;20178;-74
2022/11/01 08:16:00;;;;;;;20.87;18.93;;;13.80;99.90;;;;;;5071068;28;20739;-75
2022/11/01 08:18:25;;;;;;;16.90;15.33;;;13.90;99.90;;;;;;5070384;28;20605;-75
2022/11/01 08:20:51;;;;;;;20.73;18.83;;;13.90;99.90;;;;;;5070695;28;20201;-75
2022/11/01 08:23:17;;;;;;;42.17;39.50;;;14.00;99.90;;;;;;5060031;28;20232;-75
2022/11/01 08:25:43;;;;;;;43.90;41.13;;;14.10;99.90;;;;;;5050392;28;20218;-75
2022/11/01 08:28:17;;;;;;;29.63;27.60;;;14.10;99.90;;;;;;5050855;28;20186;-75
2022/11/01 08:30:45;;;;;;;23.17;21.67;;;14.20;99.90;;;;;;5054369;28;20201;-75
2022/11/01 08:33:11;;;;;;;16.00;14.83;;;14.30;99.90;;;;;;5045241;28;20650;-75
2022/11/01 08:35:37;;;;;;;24.17;22.10;;;14.40;99.90;;;;;;5054504;28;20179;-74
2022/11/01 08:38:04;;;;;;;14.63;13.63;;;14.60;99.90;;;;;;5054590;28;20189;-75
2022/11/01 08:40:32;;;;;;;32.70;30.77;;;14.80;99.90;;;;;;5054760;28;20211;-75
2022/11/01 08:42:58;;;;;;;49.40;46.20;;;15.00;99.90;;;;;;5059493;28;20176;-75
2022/11/01 08:45:25;;;;;;;39.87;37.63;;;15.20;99.90;;;;;;5074049;28;20209;-74
2022/11/01 08:47:59;;;;;;;28.20;26.00;;;15.40;99.90;;;;;;5086550;28;20174;-74
2022/11/01 08:50:26;;;;;;;15.00;13.50;;;15.50;99.90;;;;;;5074607;28;20743;-75
2022/11/01 08:52:52;;;;;;;40.77;38.33;;;15.60;99.90;;;;;;5069311;28;20252;-75
2022/11/01 08:55:17;;;;;;;80.80;75.77;;;15.70;99.90;;;;;;5054633;28;20603;-75
2022/11/01 08:57:43;;;;;;;184.10;174.17;;;15.80;99.90;;;;;;5053863;28;20296;-75
2022/11/01 09:00:10;;;;;;;187.57;177.57;;;15.90;99.90;;;;;;5054195;28;20751;-75
2022/11/01 09:02:35;;;;;;;223.13;211.33;;;16.00;99.90;;;;;;5056647;28;20262;-75
2022/11/01 09:05:04;;;;;;;244.17;231.37;;;16.10;99.90;;;;;;5073986;28;20265;-75
2022/11/01 09:07:29;;;;;;;97.37;91.83;;;16.20;99.90;;;;;;5073480;28;20209;-75
2022/11/01 09:09:55;;;;;;;26.93;24.97;;;16.40;99.90;;;;;;5074209;28;20206;-75
2022/11/01 09:12:21;;;;;;;16.00;12.57;;;16.60;99.90;;;;;;5073702;28;20181;-75
2022/11/01 09:14:47;;;;;;;16.23;15.03;;;16.80;99.90;;;;;;5054044;28;20187;-75
2022/11/01 09:17:13;;;;;;;14.00;13.20;;;16.90;99.90;;;;;;5052450;28;20210;-76
2022/11/01 09:19:39;;;;;;;10.37;9.77;;;17.00;99.90;;;;;;5052720;28;20174;-75
2022/11/01 09:22:05;;;;;;;28.97;27.57;;;17.20;99.90;;;;;;5053911;28;20225;-75
2022/11/01 09:24:31;;;;;;;26.27;24.87;;;17.30;99.90;;;;;;5070592;28;20752;-75
2022/11/01 09:26:57;;;;;;;23.27;22.00;;;17.30;99.90;;;;;;5072268;28;20182;-75
2022/11/01 09:29:22;;;;;;;17.63;16.43;;;17.30;99.90;;;;;;5072531;28;20185;-75
2022/11/01 09:31:52;;;;;;;13.13;12.37;;;17.40;99.90;;;;;;5073882;28;20202;-76
2022/11/01 09:34:18;;;;;;;17.07;16.00;;;17.40;99.90;;;;;;5057788;28;20668;-76
2022/11/01 09:36:44;;;;;;;20.23;19.17;;;17.40;99.90;;;;;;5053846;28;20206;-76
2022/11/01 09:39:11;;;;;;;66.27;62.77;;;17.40;99.90;;;;;;5054341;28;20311;-76
2022/11/01 09:41:44;;;;;;;65.00;61.60;;;17.40;99.90;;;;;;5053214;28;20320;-76
2022/11/01 09:44:16;;;;;;;47.60;45.23;;;17.20;99.90;;;;;;5066501;28;20182;-75
2022/11/01 09:46:51;;;;;;;50.63;47.93;;;17.20;99.90;;;;;;5072478;28;20192;-76
2022/11/01 09:49:22;;;;;;;74.43;70.37;;;17.10;99.90;;;;;;5072492;28;20181;-76
2022/11/01 09:51:48;;;;;;;29.90;28.33;;;17.20;99.90;;;;;;5072192;28;20296;-75
2022/11/01 09:54:15;;;;;;;26.40;24.97;;;17.20;99.90;;;;;;5057801;28;20210;-75
2022/11/01 09:57:09;;;;;;;16.80;15.90;;;17.40;99.90;;;;;;5053226;28;20297;-76
2022/11/01 10:00:02;;;;;;;9.87;9.17;;;17.50;99.90;;;;;;5053291;28;20182;-75
2022/11/01 10:03:02;;;;;;;7.67;7.17;;;17.60;99.90;;;;;;5052002;28;20189;-74
2022/11/01 10:05:42;;;;;;;7.57;7.17;;;17.70;99.90;;;;;;5033431;28;20183;-75
2022/11/01 10:08:30;;;;;;;10.77;10.07;;;17.70;99.90;;;;;;5033006;28;20186;-74
2022/11/01 10:11:17;;;;;;;21.83;20.63;;;17.90;99.90;;;;;;5031991;28;20195;-75
2022/11/01 10:13:58;;;;;;;32.57;30.93;;;18.20;99.90;;;;;;5052332;28;20250;-75
2022/11/01 10:16:36;;;;;;;34.73;33.00;;;18.60;99.90;;;;;;5072912;28;20300;-75
2022/11/01 10:19:13;;;;;;;15.67;14.63;;;19.30;99.90;;;;;;5072634;28;20615;-75
2022/11/01 10:21:55;;;;;;;8.87;8.37;;;20.70;99.90;;;;;;5072997;28;20235;-75
2022/11/01 10:24:34;;;;;;;13.17;12.57;;;21.70;99.90;;;;;;5058017;28;20255;-75
2022/11/01 10:27:33;;;;;;;12.90;12.20;;;22.80;99.90;;;;;;5056905;28;20187;-75
2022/11/01 10:30:06;;;;;;;4.63;4.43;;;23.20;99.90;;;;;;5058348;28;20185;-75
2022/11/01 10:32:39;;;;;;;14.17;13.47;;;23.40;99.90;;;;;;5053180;28;20232;-76
2022/11/01 10:35:22;;;;;;;39.65;37.60;;;23.20;99.90;;;;;;5033129;28;20187;-76
2022/11/01 10:38:10;;;;;;;22.90;21.83;;;23.40;99.90;;;;;;5031130;28;20213;-75
2022/11/01 10:40:42;;;;;;;22.40;21.40;;;23.60;99.90;;;;;;5032724;28;20555;-76
2022/11/01 10:43:14;;;;;;;25.50;24.05;;;23.30;99.90;;;;;;5041231;28;20871;-76
2022/11/01 10:45:42;;;;;;;15.60;14.80;;;23.50;99.90;;;;;;5072441;28;20189;-76
2022/11/01 10:48:14;;;;;;;14.70;13.98;;;23.20;99.90;;;;;;5070806;28;20255;-76
2022/11/01 10:50:41;;;;;;;16.23;15.52;;;23.10;99.90;;;;;;5094894;22;20229;-73
2022/11/01 10:53:11;;;;;;;21.50;20.55;;;23.30;99.90;;;;;;5075773;28;20263;-74
2022/11/01 10:55:51;;;;;;;30.08;28.58;;;22.80;99.90;;;;;;5092234;28;20649;-74
2022/11/01 10:58:27;;;;;;;42.33;40.33;;;22.00;99.90;;;;;;5090547;28;20233;-74
2022/11/01 11:00:53;;;;;;;46.33;44.03;;;21.50;99.90;;;;;;5092134;28;20714;-73
2022/11/01 11:03:26;;;;;;;26.73;25.50;;;21.00;99.90;;;;;;5090403;28;20592;-73
2022/11/01 11:05:54;;;;;;;6.33;6.03;;;20.50;99.90;;;;;;5092204;28;20181;-74
2022/11/01 11:08:22;;;;;;;32.67;31.00;;;20.00;99.90;;;;;;5091522;28;20653;-74
2022/11/01 11:10:49;;;;;;;53.30;50.77;;;19.90;99.90;;;;;;5062585;28;20202;-74
2022/11/01 11:13:19;;;;;;;52.57;50.13;;;19.80;99.90;;;;;;5074660;28;20189;-73
2022/11/01 11:16:00;;;;;;;48.70;46.47;;;19.70;99.90;;;;;;5091370;28;20176;-75
2022/11/01 11:18:35;;;;;;;32.60;31.00;;;19.70;99.90;;;;;;5090108;28;20188;-75
2022/11/01 11:21:04;;;;;;;39.67;37.23;;;19.70;99.90;;;;;;5091485;28;20282;-76
2022/11/01 11:23:35;;;;;;;12.50;11.90;;;19.70;99.90;;;;;;5084720;28;20184;-75
2022/11/01 11:26:15;;;;;;;18.10;17.30;;;19.60;99.90;;;;;;5071431;28;20185;-75
2022/11/01 11:28:51;;;;;;;9.30;8.70;;;19.70;99.90;;;;;;5070971;28;20189;-76
2022/11/01 11:31:25;;;;;;;17.73;16.93;;;19.80;99.90;;;;;;5069497;28;20209;-73
2022/11/01 11:34:03;;;;;;;9.67;9.30;;;19.80;99.90;;;;;;5078556;28;20815;-74
2022/11/01 11:36:33;;;;;;;21.00;19.83;;;19.90;99.90;;;;;;5071122;28;20205;-76
2022/11/01 11:39:00;;;;;;;42.80;40.83;;;20.00;99.90;;;;;;5066166;28;20654;-75
2022/11/01 11:41:31;;;;;;;43.30;41.30;;;20.10;99.90;;;;;;5069571;28;20197;-75
2022/11/01 11:43:58;;;;;;;54.90;52.17;;;20.10;99.90;;;;;;5070919;28;20185;-74
2022/11/01 11:46:25;;;;;;;49.60;47.20;;;20.40;99.90;;;;;;5064008;28;20189;-76
2022/11/01 11:49:06;;;;;;;36.07;34.43;;;20.70;99.90;;;;;;5056786;28;20181;-74
2022/11/01 11:51:36;;;;;;;34.60;33.00;;;20.70;99.90;;;;;;5069339;28;20437;-74
2022/11/01 11:54:23;;;;;;;32.13;30.57;;;20.70;99.90;;;;;;5069741;28;20185;-73
2022/11/01 11:56:51;;;;;;;49.03;46.73;;;20.60;99.90;;;;;;5070483;28;20209;-75
2022/11/01 11:59:30;;;;;;;37.80;35.93;;;20.40;99.90;;;;;;5069677;28;20177;-75
2022/11/01 12:02:05;;;;;;;63.10;60.07;;;20.50;99.90;;;;;;5071442;28;20208;-75
2022/11/01 12:04:46;;;;;;;49.47;46.87;;;20.60;99.90;;;;;;5084016;28;20180;-73
2022/11/01 12:07:36;;;;;;;63.30;59.73;;;20.50;99.90;;;;;;5090466;28;20799;-74
2022/11/01 12:10:25;;;;;;;72.27;68.27;;;20.30;99.90;;;;;;5090873;28;20199;-73
2022/11/01 12:12:53;;;;;;;63.33;59.73;;;20.10;99.90;;;;;;5090466;28;20192;-74
2022/11/01 12:15:35;;;;;;;64.23;61.00;;;19.90;99.90;;;;;;5089465;28;20216;-74
2022/11/01 12:18:16;;;;;;;29.67;28.10;;;19.70;99.90;;;;;;5090210;28;20224;-74
2022/11/01 12:20:47;;;;;;;35.93;34.00;;;19.60;99.90;;;;;;5090839;28;20688;-74
2022/11/01 12:23:18;;;;;;;14.10;13.20;;;19.70;99.90;;;;;;5086665;28;20260;-74
2022/11/01 12:25:45;;;;;;;43.90;41.53;;;19.80;99.90;;;;;;5070743;28;20178;-73
2022/11/01 12:28:29;;;;;;;38.03;36.13;;;20.10;99.90;;;;;;5070170;28;20541;-74
2022/11/01 12:31:10;;;;;;;28.83;27.37;;;20.50;99.90;;;;;;5070607;28;20201;-74
2022/11/01 12:33:44;;;;;;;15.97;15.07;;;20.90;99.90;;;;;;5075721;28;20189;-74
2022/11/01 12:36:13;;;;;;;16.83;15.80;;;21.00;99.90;;;;;;5078876;28;20208;-74
2022/11/01 12:38:48;;;;;;;36.23;34.40;;;21.10;99.90;;;;;;5069984;28;20184;-74
2022/11/01 12:41:43;;;;;;;42.47;40.30;;;21.20;99.90;;;;;;5070575;28;20338;-74
2022/11/01 12:44:33;;;;;;;16.50;15.53;;;21.30;99.90;;;;;;5080054;28;20184;-74
2022/11/01 12:47:06;;;;;;;13.03;12.17;;;20.80;99.90;;;;;;5049905;28;20190;-74
2022/11/01 12:49:51;;;;;;;25.77;24.33;;;20.40;99.90;;;;;;5050355;28;20182;-74